Time;durP1;ratioP1;P1;durP2;ratioP2;P2;SDS_P1;SDS_P2;PMS_P1;PMS_P2;Temp;Humidity;BMP_temperature;BMP_pressure;BME280_temperature;BME280_humidity;BME280_pressure;Samples;Min_cycle;Max_cycle;Signal;HPM_P1;HPM_P2
2023/03/13 00:02:20;;;;;;;1.57;0.73;;;;;;;6.33;100.00;97432.94;22042989;27;20119;-57
2023/03/13 00:12:22;;;;;;;2.00;0.87;;;;;;;6.35;100.00;97436.22;22062669;27;20425;-58
2023/03/13 00:22:25;;;;;;;4.37;1.23;;;;;;;6.39;100.00;97419.34;21968640;27;20025;-55
2023/03/13 00:32:27;;;;;;;2.70;0.90;;;;;;;6.39;100.00;97421.22;21970458;27;20033;-57
2023/03/13 00:42:30;;;;;;;2.80;1.27;;;;;;;6.44;100.00;97407.84;21970009;27;20039;-57
2023/03/13 00:52:33;;;;;;;1.77;1.00;;;;;;;6.43;100.00;97400.84;21969551;27;20051;-55
2023/03/13 01:02:40;;;;;;;3.07;1.10;;;;;;;6.43;100.00;97401.66;21969500;27;20052;-57
2023/03/13 01:12:43;;;;;;;3.43;1.00;;;;;;;6.43;100.00;97396.28;21968294;27;20079;-57
2023/03/13 01:22:46;;;;;;;3.10;1.10;;;;;;;6.41;100.00;97387.69;22051170;27;20020;-54
2023/03/13 01:32:48;;;;;;;4.20;1.63;;;;;;;6.41;100.00;97366.19;22061407;27;20021;-56
2023/03/13 01:42:56;;;;;;;2.13;0.90;;;;;;;6.47;100.00;97374.28;22061320;27;20072;-57
2023/03/13 01:52:59;;;;;;;2.80;1.10;;;;;;;6.47;100.00;97361.69;22061647;27;20035;-57
2023/03/13 02:03:08;;;;;;;2.30;0.90;;;;;;;6.50;100.00;97363.06;22063533;27;20062;-55
2023/03/13 02:13:14;;;;;;;2.43;0.90;;;;;;;6.53;100.00;97358.00;22065190;27;20057;-56
2023/03/13 02:23:33;;;;;;;2.73;0.93;;;;;;;6.55;100.00;97326.34;22064478;27;20021;-57
2023/03/13 02:33:41;;;;;;;2.47;1.30;;;;;;;6.48;100.00;97328.38;22064563;27;20071;-57
2023/03/13 02:43:43;;;;;;;2.23;1.00;;;;;;;6.43;100.00;97315.72;22064042;27;20029;-56
2023/03/13 02:53:49;;;;;;;2.13;0.90;;;;;;;6.45;100.00;97299.34;22064055;27;20427;-57
2023/03/13 03:03:51;;;;;;;3.47;1.20;;;;;;;6.50;100.00;97309.34;22064121;27;20352;-58
2023/03/13 03:13:54;;;;;;;2.00;0.97;;;;;;;6.53;100.00;97298.91;22063841;27;20026;-57
2023/03/13 03:23:56;;;;;;;2.30;0.93;;;;;;;6.56;100.00;97292.22;22063148;27;20028;-57
2023/03/13 03:33:59;;;;;;;2.40;1.17;;;;;;;6.58;100.00;97290.91;22063237;27;20029;-56
2023/03/13 03:44:03;;;;;;;2.67;1.13;;;;;;;6.61;100.00;97290.38;22063216;27;20036;-57
2023/03/13 03:54:06;;;;;;;2.93;1.00;;;;;;;6.65;100.00;97285.31;22042881;27;20060;-58
2023/03/13 04:04:08;;;;;;;1.50;1.00;;;;;;;6.68;100.00;97263.31;22062849;27;20024;-57
2023/03/13 04:14:10;;;;;;;2.57;1.03;;;;;;;6.66;100.00;97275.38;22062392;27;20070;-57
2023/03/13 04:24:13;;;;;;;2.87;1.33;;;;;;;6.70;100.00;97288.06;22062330;27;20028;-57
2023/03/13 04:34:15;;;;;;;3.57;1.53;;;;;;;6.69;100.00;97277.59;22061967;27;20022;-55
2023/03/13 04:44:17;;;;;;;2.67;1.40;;;;;;;6.73;100.00;97262.56;22061926;27;20063;-57
2023/03/13 04:54:20;;;;;;;4.27;1.50;;;;;;;6.77;100.00;97255.63;22041827;27;20036;-57
2023/03/13 05:04:23;;;;;;;3.43;1.50;;;;;;;6.76;100.00;97254.78;22061839;27;20420;-56
2023/03/13 05:14:25;;;;;;;6.27;1.73;;;;;;;6.77;100.00;97234.13;22041787;27;20048;-56
2023/03/13 05:24:28;;;;;;;4.17;1.60;;;;;;;6.77;100.00;97247.56;22061887;27;20049;-56
2023/03/13 05:34:30;;;;;;;2.37;1.30;;;;;;;6.82;100.00;97226.09;22061006;27;20036;-57
2023/03/13 05:44:33;;;;;;;3.83;1.17;;;;;;;6.85;100.00;97211.31;22061056;27;20025;-56
2023/03/13 05:54:36;;;;;;;2.00;1.30;;;;;;;6.78;100.00;97198.94;22022573;27;20029;-57
2023/03/13 06:04:39;;;;;;;2.33;1.50;;;;;;;6.81;100.00;97215.59;22060740;26;20345;-57
2023/03/13 06:14:42;;;;;;;2.23;1.23;;;;;;;6.86;100.00;97219.13;22060468;27;20021;-57
2023/03/13 06:24:47;;;;;;;3.60;1.53;;;;;;;6.79;100.00;97195.16;22060628;27;20021;-57
2023/03/13 06:34:51;;;;;;;2.53;1.00;;;;;;;6.76;100.00;97184.12;22060535;27;20338;-58
2023/03/13 06:44:53;;;;;;;3.17;1.20;;;;;;;6.86;100.00;97194.94;22060702;27;20099;-56
2023/03/13 06:54:56;;;;;;;2.43;1.20;;;;;;;7.10;100.00;97199.97;22063939;27;20072;-57
2023/03/13 07:04:59;;;;;;;2.73;1.47;;;;;;;7.49;100.00;97207.72;22063754;27;20049;-55
2023/03/13 07:15:05;;;;;;;1.00;0.80;;;;;;;7.88;100.00;97210.03;22043522;27;20032;-57
2023/03/13 07:25:09;;;;;;;1.90;0.80;;;;;;;8.11;100.00;97203.37;22063286;27;20031;-57
2023/03/13 07:35:12;;;;;;;1.00;0.83;;;;;;;8.35;100.00;97191.31;22063602;27;20129;-57
2023/03/13 07:45:14;;;;;;;1.50;1.00;;;;;;;9.00;100.00;97183.50;22042925;27;20025;-57
2023/03/13 07:55:17;;;;;;;2.13;1.07;;;;;;;9.64;100.00;97176.59;22043126;27;20036;-57
2023/03/13 08:05:20;;;;;;;2.10;0.93;;;;;;;10.03;100.00;97164.31;22062849;27;20041;-57
2023/03/13 08:15:25;;;;;;;1.30;0.70;;;;;;;10.21;100.00;97151.22;22062065;27;20042;-57
2023/03/13 08:25:28;;;;;;;2.30;0.80;;;;;;;10.43;100.00;97130.00;22042647;27;20025;-57
2023/03/13 08:35:30;;;;;;;2.57;1.00;;;;;;;11.13;100.00;97109.09;22041910;27;20021;-57
2023/03/13 08:45:33;;;;;;;1.65;0.68;;;;;;;11.83;100.00;97092.25;22062120;27;20024;-58
2023/03/13 08:55:36;;;;;;;1.33;0.60;;;;;;;12.45;100.00;97071.56;22061754;27;20072;-58
2023/03/13 09:05:38;;;;;;;2.20;0.80;;;;;;;13.14;100.00;97066.25;22061945;27;20029;-57
2023/03/13 09:16:03;;;;;;;3.22;1.23;;;;;;;13.85;100.00;97076.78;22043884;27;20337;-58
2023/03/13 09:26:05;;;;;;;2.10;0.90;;;;;;;14.82;100.00;97042.09;22042311;27;20072;-58
2023/03/13 09:36:09;;;;;;;2.85;0.70;;;;;;;15.52;100.00;97024.06;22061127;27;20033;-58
2023/03/13 09:46:21;;;;;;;1.65;0.77;;;;;;;16.45;100.00;97015.72;22041063;27;20365;-58
2023/03/13 09:56:29;;;;;;;0.10;0.03;;;;;;;17.08;97.29;97005.09;22041174;27;20055;-57
2023/03/13 10:06:42;;;;;;;0.25;0.10;;;;;;;17.90;83.15;96981.25;22041365;27;20035;-58
2023/03/13 10:17:25;;;;;;;0.30;0.20;;;;;;;18.62;83.85;96972.81;22040413;27;20445;-58
2023/03/13 10:27:28;;;;;;;0.13;0.00;;;;;;;18.95;74.11;96944.59;22026608;27;20182;-56
2023/03/13 10:37:41;;;;;;;0.50;0.10;;;;;;;18.96;82.14;96925.06;22044330;26;20029;-56
2023/03/13 10:47:44;;;;;;;3.05;0.50;;;;;;;18.87;80.06;96888.75;22044422;27;20325;-55
2023/03/13 10:58:05;;;;;;;2.83;0.90;;;;;;;18.93;70.27;96876.44;22064024;27;20041;-55
2023/03/13 11:08:27;;;;;;;0.93;0.57;;;;;;;18.85;73.30;96849.94;22064373;27;20109;-54
2023/03/13 11:18:43;;;;;;;1.27;0.50;;;;;;;18.65;72.90;96838.00;22063381;27;20029;-54
2023/03/13 11:29:15;;;;;;;2.90;0.80;;;;;;;18.81;70.28;96807.97;22025310;26;20022;-55
2023/03/13 11:39:41;;;;;;;0.68;0.55;;;;;;;19.11;70.55;96789.31;22063208;27;20064;-55
2023/03/13 11:49:59;;;;;;;0.77;0.50;;;;;;;19.69;67.83;96773.62;22063180;27;20024;-55
2023/03/13 12:00:32;;;;;;;1.08;0.45;;;;;;;20.22;63.79;96746.75;22062832;27;20034;-55
2023/03/13 12:10:46;;;;;;;0.70;0.40;;;;;;;20.72;61.20;96724.34;22056305;27;20401;-55
2023/03/13 12:20:54;;;;;;;0.60;0.40;;;;;;;21.15;59.87;96689.50;22062204;27;20329;-55
2023/03/13 12:37:20;;;;;;;1.05;0.60;;;;;;;21.79;60.19;96659.62;22062231;27;20072;-55
2023/03/13 12:47:59;;;;;;;1.10;0.40;;;;;;;21.79;60.19;96659.62;22062324;27;20320;-56
2023/03/13 12:58:34;;;;;;;1.55;0.40;;;;;;;23.33;49.15;96577.31;22061970;27;20068;-55
2023/03/13 13:08:45;;;;;;;0.73;0.40;;;;;;;23.58;47.75;96537.31;22061892;27;20025;-56
2023/03/13 13:18:51;;;;;;;2.10;0.60;;;;;;;24.17;48.98;96517.97;22041604;27;20037;-55
2023/03/13 13:29:10;;;;;;;1.35;0.70;;;;;;;24.82;46.41;96485.03;22061631;27;20066;-55
2023/03/13 13:39:38;;;;;;;1.33;0.40;;;;;;;24.98;44.38;96459.75;22061486;27;20098;-56
2023/03/13 13:49:54;;;;;;;1.23;0.50;;;;;;;25.31;39.16;96464.09;22034277;27;20417;-55
2023/03/13 14:00:20;;;;;;;2.08;0.47;;;;;;;25.27;40.48;96446.69;22063997;27;20107;-55
2023/03/13 14:10:40;;;;;;;1.48;0.50;;;;;;;25.15;37.36;96420.22;22065578;27;20037;-55
2023/03/13 14:20:49;;;;;;;0.82;0.30;;;;;;;24.63;39.56;96394.97;22064413;27;20450;-55
2023/03/13 14:30:55;;;;;;;0.73;0.37;;;;;;;24.07;41.33;96380.66;22045013;27;20049;-55
2023/03/13 14:40:58;;;;;;;1.00;0.30;;;;;;;23.78;36.59;96369.50;22064367;27;20025;-54
2023/03/13 14:51:20;;;;;;;2.75;0.30;;;;;;;23.85;40.35;96341.94;22064013;27;20352;-55
2023/03/13 15:01:29;;;;;;;1.85;0.20;;;;;;;23.37;39.40;96312.59;22063938;27;20072;-54
2023/03/13 15:11:36;;;;;;;0.57;0.20;;;;;;;22.98;39.80;96285.59;22043522;27;20066;-55
2023/03/13 15:21:40;;;;;;;0.45;0.17;;;;;;;22.66;38.69;96264.16;22062967;27;20035;-54
2023/03/13 15:31:43;;;;;;;0.50;0.20;;;;;;;22.47;39.32;96238.47;22063513;27;20037;-53
2023/03/13 15:41:46;;;;;;;0.50;0.20;;;;;;;22.32;40.38;96226.53;22043532;27;20043;-54
2023/03/13 15:51:49;;;;;;;0.68;0.20;;;;;;;22.22;40.51;96196.94;22043593;27;20479;-55
2023/03/13 16:01:52;;;;;;;0.32;0.22;;;;;;;21.68;41.20;96180.03;22062865;27;20029;-54
2023/03/13 16:11:55;;;;;;;0.10;0.10;;;;;;;21.48;43.58;96133.47;22043137;27;20401;-54
2023/03/13 16:21:57;;;;;;;;;;;;;;;20.99;47.28;96090.59;22061764;26;20028;-52
2023/03/13 16:32:01;;;;;;;0.43;0.20;;;;;;;20.16;50.14;96056.69;22042586;27;19956;-55
2023/03/13 16:42:04;;;;;;;1.55;0.43;;;;;;;19.30;53.46;96029.56;22062008;27;20017;-53
2023/03/13 16:52:13;;;;;;;0.32;0.20;;;;;;;18.73;54.15;96012.16;22062187;27;20033;-53
2023/03/13 17:02:19;;;;;;;2.17;0.40;;;;;;;18.17;56.54;95989.63;22061667;27;20044;-54
2023/03/13 17:12:22;;;;;;;0.88;0.40;;;;;;;17.71;59.44;95970.31;22061718;27;20086;-53
2023/03/13 17:22:25;;;;;;;1.17;0.27;;;;;;;17.35;60.66;95959.38;22061077;27;20020;-53
2023/03/13 17:32:29;;;;;;;0.47;0.30;;;;;;;16.97;62.84;95933.56;22040842;27;20087;-53
2023/03/13 17:42:32;;;;;;;;;;;;;;;16.40;64.96;95911.91;22041895;27;20041;-54
2023/03/13 17:52:35;;;;;;;0.90;0.20;;;;;;;15.79;65.79;95909.44;22061224;27;20299;-53
2023/03/13 18:02:38;;;;;;;1.08;0.35;;;;;;;15.29;68.60;95887.81;22061052;27;20076;-55
2023/03/13 18:12:40;;;;;;;0.95;0.50;;;;;;;14.85;71.71;95863.97;22061101;27;20021;-53
2023/03/13 18:22:44;;;;;;;0.40;0.40;;;;;;;14.44;75.46;95848.69;21966505;27;20028;-54
2023/03/13 18:32:47;;;;;;;0.77;0.33;;;;;;;14.04;80.74;95871.84;21968349;27;20029;-53
2023/03/13 18:42:50;;;;;;;1.60;0.50;;;;;;;13.77;87.06;95876.75;21970537;27;20025;-53
2023/03/13 18:52:54;;;;;;;2.10;0.60;;;;;;;13.62;90.53;95861.91;21971985;27;20107;-54
2023/03/13 19:02:57;;;;;;;;;;;;;;;13.59;95.72;95897.06;21973265;27;20067;-55
2023/03/13 19:13:00;;;;;;;1.98;0.68;;;;;;;13.52;96.88;95941.81;21972137;27;19943;-54
2023/03/13 19:23:03;;;;;;;0.60;0.45;;;;;;;13.62;98.28;96032.16;22052947;27;20028;-53
2023/03/13 19:33:06;;;;;;;2.58;0.40;;;;;;;15.28;100.00;96136.75;22043675;27;20416;-56
2023/03/13 19:43:09;;;;;;;0.93;0.40;;;;;;;14.02;100.00;96314.34;22063209;27;20025;-55
2023/03/13 19:53:11;;;;;;;2.13;0.60;;;;;;;12.36;100.00;96353.09;22062491;27;20040;-52
2023/03/13 20:03:14;;;;;;;2.80;0.70;;;;;;;12.01;100.00;96366.53;22025041;27;20072;-52
2023/03/13 20:13:17;;;;;;;2.20;0.53;;;;;;;11.60;100.00;96351.28;22063200;27;20053;-51
2023/03/13 20:23:20;;;;;;;1.00;0.50;;;;;;;11.44;100.00;96334.63;22062267;27;20033;-54
2023/03/13 20:33:23;;;;;;;3.07;0.60;;;;;;;11.39;100.00;96348.25;22042291;27;20408;-56
2023/03/13 20:43:27;;;;;;;1.00;0.30;;;;;;;11.20;100.00;96230.22;22061688;27;20028;-55
2023/03/13 20:53:30;;;;;;;1.67;0.50;;;;;;;11.25;100.00;96251.75;22062202;27;20036;-55
2023/03/13 21:03:34;;;;;;;1.67;0.30;;;;;;;11.18;100.00;96273.81;22023350;27;20020;-53
2023/03/13 21:13:37;;;;;;;0.70;0.43;;;;;;;10.97;100.00;96281.59;22061613;27;20070;-56
2023/03/13 21:23:40;;;;;;;1.20;0.20;;;;;;;10.67;100.00;96335.28;21967553;27;20029;-54
2023/03/13 21:33:43;;;;;;;0.80;0.20;;;;;;;10.47;100.00;96306.78;21969104;27;20318;-55
2023/03/13 21:43:47;;;;;;;0.60;0.30;;;;;;;10.22;100.00;96355.91;21969122;27;20402;-55
2023/03/13 21:53:49;;;;;;;1.13;0.33;;;;;;;10.16;100.00;96387.59;21969732;27;20033;-56
2023/03/13 22:03:52;;;;;;;1.17;0.30;;;;;;;10.03;100.00;96399.19;21967540;27;20033;-56
2023/03/13 22:13:55;;;;;;;1.87;0.40;;;;;;;9.97;100.00;96414.69;21966949;27;20033;-54
2023/03/13 22:23:58;;;;;;;2.93;0.50;;;;;;;9.93;100.00;96451.47;22062232;27;20033;-52
2023/03/13 22:34:01;;;;;;;2.10;0.47;;;;;;;9.86;100.00;96470.75;22064649;27;20040;-54
2023/03/13 22:44:04;;;;;;;1.27;0.40;;;;;;;9.77;100.00;96464.41;22064896;27;20040;-54
2023/03/13 22:54:07;;;;;;;1.33;0.40;;;;;;;9.68;100.00;96434.59;22063963;27;20044;-56
2023/03/13 23:04:10;;;;;;;2.90;0.30;;;;;;;9.58;100.00;96396.97;22063789;27;20063;-55
2023/03/13 23:14:13;;;;;;;0.30;0.10;;;;;;;9.43;100.00;96363.75;22043553;27;20029;-55
2023/03/13 23:24:16;;;;;;;0.20;0.13;;;;;;;9.26;100.00;96358.09;22043495;27;20401;-56
2023/03/13 23:34:20;;;;;;;0.20;0.10;;;;;;;9.12;100.00;96325.69;22062908;27;20032;-56
2023/03/13 23:44:24;;;;;;;2.80;0.27;;;;;;;9.00;100.00;96304.53;22063453;27;20032;-55
2023/03/13 23:54:26;;;;;;;2.77;0.30;;;;;;;8.87;100.00;96316.88;22063789;27;20029;-55
